Time;durP1;ratioP1;P1;durP2;ratioP2;P2;SDS_P1;SDS_P2;PMS_P1;PMS_P2;Temp;Humidity;BMP_temperature;BMP_pressure;BME280_temperature;BME280_humidity;BME280_pressure;Samples;Min_cycle;Max_cycle;Signal;HPM_P1;HPM_P2
2024/01/27 00:00:20;;;;;;;34.05;6.63;;;;;;;;;;4986036;28;20035;-75
2024/01/27 00:02:46;;;;;;;40.15;7.72;;;;;;;;;;4986812;28;20077;-76
2024/01/27 00:05:12;;;;;;;32.85;6.78;;;;;;;;;;4986955;28;20043;-75
2024/01/27 00:07:38;;;;;;;26.92;6.20;;;;;;;;;;4986868;28;20033;-76
2024/01/27 00:10:04;;;;;;;40.15;6.53;;;;;;;;;;4984696;28;20045;-76
2024/01/27 00:12:31;;;;;;;35.88;7.20;;;;;;;;;;4984522;28;20053;-77
2024/01/27 00:14:57;;;;;;;37.38;7.50;;;;;;;;;;4986823;28;20496;-76
2024/01/27 00:17:25;;;;;;;32.22;6.03;;;;;;;;;;4979429;28;20038;-76
2024/01/27 00:19:55;;;;;;;30.98;6.20;;;;;;;;;;4988154;28;20076;-75
2024/01/27 00:22:21;;;;;;;30.05;6.97;;;;;;;;;;5017628;28;20030;-77
2024/01/27 00:24:47;;;;;;;44.00;8.05;;;;;;;;;;4988159;28;20023;-76
2024/01/27 00:27:13;;;;;;;27.85;6.22;;;;;;;;;;4986244;28;20049;-76
2024/01/27 00:29:40;;;;;;;28.42;6.35;;;;;;;;;;4981090;28;20038;-76
2024/01/27 00:32:06;;;;;;;32.38;6.50;;;;;;;;;;4986600;28;20034;-75
2024/01/27 00:34:32;;;;;;;28.08;6.63;;;;;;;;;;5002629;28;20101;-75
2024/01/27 00:36:58;;;;;;;30.30;7.75;;;;;;;;;;4985477;28;20065;-76
2024/01/27 00:39:24;;;;;;;37.65;6.00;;;;;;;;;;4980234;28;20426;-75
2024/01/27 00:41:52;;;;;;;37.75;6.35;;;;;;;;;;4986556;28;20447;-76
2024/01/27 00:44:18;;;;;;;36.90;7.88;;;;;;;;;;4980392;28;20045;-75
2024/01/27 00:46:44;;;;;;;43.97;6.88;;;;;;;;;;4983313;28;20022;-76
2024/01/27 00:49:10;;;;;;;30.95;6.40;;;;;;;;;;4986782;28;20064;-76
2024/01/27 00:51:37;;;;;;;32.60;6.07;;;;;;;;;;4988798;28;20038;-76
2024/01/27 00:54:03;;;;;;;23.38;5.80;;;;;;;;;;4981703;28;20444;-75
2024/01/27 00:56:29;;;;;;;42.33;8.35;;;;;;;;;;4980567;28;20061;-76
2024/01/27 00:58:55;;;;;;;42.83;6.57;;;;;;;;;;4985254;28;20041;-75
2024/01/27 01:01:21;;;;;;;33.22;7.40;;;;;;;;;;4977869;28;20031;-76
2024/01/27 01:03:48;;;;;;;33.13;6.00;;;;;;;;;;4986559;28;20053;-77
2024/01/27 01:06:16;;;;;;;30.13;5.30;;;;;;;;;;4988298;28;20034;-76
2024/01/27 01:08:42;;;;;;;36.45;5.90;;;;;;;;;;4984058;28;20126;-76
2024/01/27 01:11:08;;;;;;;30.70;6.13;;;;;;;;;;4985508;28;20053;-76
2024/01/27 01:13:34;;;;;;;37.83;7.55;;;;;;;;;;4986629;28;20033;-75
2024/01/27 01:16:00;;;;;;;39.00;6.22;;;;;;;;;;4982474;28;20125;-76
2024/01/27 01:18:26;;;;;;;35.40;7.13;;;;;;;;;;5010660;28;20121;-76
2024/01/27 01:20:55;;;;;;;36.42;6.53;;;;;;;;;;4984933;28;20078;-76
2024/01/27 01:23:22;;;;;;;24.45;6.97;;;;;;;;;;4974547;28;20039;-76
2024/01/27 01:25:48;;;;;;;39.47;7.40;;;;;;;;;;4987877;28;20102;-76
2024/01/27 01:28:14;;;;;;;41.28;7.13;;;;;;;;;;4984149;28;20039;-76
2024/01/27 01:30:40;;;;;;;30.40;6.90;;;;;;;;;;4986616;28;20456;-75
2024/01/27 01:33:08;;;;;;;40.67;6.60;;;;;;;;;;4983989;28;20161;-76
2024/01/27 01:35:34;;;;;;;34.33;8.20;;;;;;;;;;4981500;28;20540;-75
2024/01/27 01:38:00;;;;;;;35.13;7.70;;;;;;;;;;4987175;28;20061;-76
2024/01/27 01:40:26;;;;;;;46.60;7.15;;;;;;;;;;4984893;28;20062;-75
2024/01/27 01:42:52;;;;;;;32.42;6.00;;;;;;;;;;4980335;28;20062;-76
2024/01/27 01:45:20;;;;;;;32.38;5.28;;;;;;;;;;4981796;28;20054;-76
2024/01/27 01:47:46;;;;;;;36.88;6.22;;;;;;;;;;4985843;28;20202;-76
2024/01/27 01:50:12;;;;;;;30.45;5.68;;;;;;;;;;4988262;28;20149;-76
2024/01/27 01:52:39;;;;;;;33.45;5.80;;;;;;;;;;4987600;28;20042;-76
2024/01/27 01:55:05;;;;;;;35.13;6.80;;;;;;;;;;5014587;28;20140;-76
2024/01/27 01:57:32;;;;;;;34.75;6.78;;;;;;;;;;4989083;28;20141;-76
2024/01/27 01:59:58;;;;;;;31.95;6.93;;;;;;;;;;4983138;28;20045;-75
2024/01/27 02:02:24;;;;;;;31.63;6.28;;;;;;;;;;4985454;28;20030;-76
2024/01/27 02:04:51;;;;;;;35.97;6.90;;;;;;;;;;4989006;28;20077;-76
2024/01/27 02:07:18;;;;;;;27.17;5.38;;;;;;;;;;4991532;28;20054;-76
2024/01/27 02:09:44;;;;;;;37.40;6.53;;;;;;;;;;4989423;28;20038;-76
2024/01/27 02:12:10;;;;;;;33.50;5.90;;;;;;;;;;4987466;28;20061;-75
2024/01/27 02:14:36;;;;;;;28.77;5.07;;;;;;;;;;4987762;28;20506;-75
2024/01/27 02:17:04;;;;;;;30.13;6.30;;;;;;;;;;4990285;28;20049;-76
2024/01/27 02:19:30;;;;;;;38.50;7.88;;;;;;;;;;4987845;28;20054;-76
2024/01/27 02:21:56;;;;;;;30.98;5.82;;;;;;;;;;4989613;28;20025;-75
2024/01/27 02:24:22;;;;;;;29.95;6.05;;;;;;;;;;4987118;28;20026;-76
2024/01/27 02:26:48;;;;;;;37.53;5.90;;;;;;;;;;4990567;28;20026;-76
2024/01/27 02:29:15;;;;;;;35.15;6.00;;;;;;;;;;4987938;28;20058;-75
2024/01/27 02:31:41;;;;;;;35.75;6.22;;;;;;;;;;4989725;28;20390;-75
2024/01/27 02:34:07;;;;;;;31.67;5.80;;;;;;;;;;4990054;28;20050;-76
2024/01/27 02:36:33;;;;;;;29.40;5.57;;;;;;;;;;4990047;28;20037;-75
2024/01/27 02:38:59;;;;;;;39.15;9.05;;;;;;;;;;4986205;28;20022;-76
2024/01/27 02:41:25;;;;;;;42.45;6.63;;;;;;;;;;4990703;28;20078;-76
2024/01/27 02:43:54;;;;;;;30.35;5.47;;;;;;;;;;5009441;28;20035;-76
2024/01/27 02:46:21;;;;;;;31.27;5.60;;;;;;;;;;4989558;28;20035;-76
2024/01/27 02:48:47;;;;;;;30.50;7.00;;;;;;;;;;4989674;28;20022;-77
2024/01/27 02:51:13;;;;;;;30.73;5.50;;;;;;;;;;4988977;28;20065;-76
2024/01/27 02:53:39;;;;;;;29.80;4.95;;;;;;;;;;4983143;28;20058;-76
2024/01/27 02:56:10;;;;;;;30.98;4.88;;;;;;;;;;4969228;28;20124;-75
2024/01/27 02:58:37;;;;;;;31.88;5.15;;;;;;;;;;4983539;28;20141;-77
2024/01/27 03:01:03;;;;;;;37.85;6.57;;;;;;;;;;4996250;28;20113;-76
2024/01/27 03:03:29;;;;;;;27.98;5.93;;;;;;;;;;4986452;28;20046;-76
2024/01/27 03:05:56;;;;;;;34.05;5.55;;;;;;;;;;5011950;28;20027;-76
2024/01/27 03:08:22;;;;;;;29.50;6.10;;;;;;;;;;4984679;28;20086;-77
2024/01/27 03:10:48;;;;;;;37.20;6.07;;;;;;;;;;4986927;28;20109;-75
2024/01/27 03:13:15;;;;;;;30.92;6.35;;;;;;;;;;5008277;28;20038;-76
2024/01/27 03:15:43;;;;;;;35.30;5.88;;;;;;;;;;4987313;28;20113;-76
2024/01/27 03:18:09;;;;;;;28.67;5.45;;;;;;;;;;4987848;28;20461;-77
2024/01/27 03:20:35;;;;;;;30.85;5.00;;;;;;;;;;4983042;28;20054;-75
2024/01/27 03:23:01;;;;;;;34.33;6.85;;;;;;;;;;4988328;28;20323;-75
2024/01/27 03:25:28;;;;;;;31.35;7.05;;;;;;;;;;4989767;28;20049;-76
2024/01/27 03:27:55;;;;;;;28.30;4.78;;;;;;;;;;4996104;28;20031;-76
2024/01/27 03:30:22;;;;;;;33.03;6.45;;;;;;;;;;5005368;28;20080;-76
2024/01/27 03:32:48;;;;;;;39.80;5.75;;;;;;;;;;5010910;28;20527;-76
2024/01/27 03:35:14;;;;;;;33.65;5.55;;;;;;;;;;5013755;28;20042;-76
2024/01/27 03:37:41;;;;;;;34.28;5.75;;;;;;;;;;4982441;28;20454;-76
2024/01/27 03:40:07;;;;;;;38.17;5.65;;;;;;;;;;4987843;28;20484;-76
2024/01/27 03:42:33;;;;;;;27.80;6.07;;;;;;;;;;4997515;28;20047;-75
2024/01/27 03:44:59;;;;;;;28.73;6.78;;;;;;;;;;4988315;28;20029;-76
2024/01/27 03:47:26;;;;;;;32.15;7.45;;;;;;;;;;4986691;28;20034;-76
2024/01/27 03:49:55;;;;;;;42.00;9.10;;;;;;;;;;4988311;28;20598;-76
2024/01/27 03:52:21;;;;;;;34.47;7.25;;;;;;;;;;5011839;28;20113;-76
2024/01/27 03:54:47;;;;;;;47.15;8.13;;;;;;;;;;4983988;28;20518;-76
2024/01/27 03:57:13;;;;;;;23.92;7.25;;;;;;;;;;4985109;28;20034;-76
2024/01/27 03:59:43;;;;;;;41.40;9.10;;;;;;;;;;4968512;28;20038;-76
2024/01/27 04:02:09;;;;;;;30.17;9.07;;;;;;;;;;5010749;28;20034;-76
2024/01/27 04:04:37;;;;;;;33.58;9.23;;;;;;;;;;4990079;28;20038;-76
2024/01/27 04:07:03;;;;;;;39.78;10.18;;;;;;;;;;4986984;28;20394;-76
2024/01/27 04:09:29;;;;;;;47.08;11.40;;;;;;;;;;4989258;28;20058;-76
2024/01/27 04:11:55;;;;;;;31.40;10.50;;;;;;;;;;4987657;28;20060;-76
2024/01/27 04:14:25;;;;;;;44.50;12.63;;;;;;;;;;4970838;28;20113;-76
2024/01/27 04:16:51;;;;;;;38.53;11.85;;;;;;;;;;5011210;28;20042;-76
2024/01/27 04:19:17;;;;;;;56.28;13.68;;;;;;;;;;4985975;28;20043;-76
2024/01/27 04:21:43;;;;;;;32.90;11.07;;;;;;;;;;5012995;28;20034;-75
2024/01/27 04:24:09;;;;;;;28.05;11.77;;;;;;;;;;4983310;28;20027;-76
2024/01/27 04:26:35;;;;;;;35.35;12.60;;;;;;;;;;4984672;28;20110;-76
2024/01/27 04:29:02;;;;;;;40.40;13.70;;;;;;;;;;4984879;28;20105;-76
2024/01/27 04:31:28;;;;;;;52.25;14.32;;;;;;;;;;4988729;28;20053;-76
2024/01/27 04:33:54;;;;;;;47.53;16.38;;;;;;;;;;4976853;28;20077;-76
2024/01/27 04:36:30;;;;;;;44.58;15.73;;;;;;;;;;4983134;28;20034;-75
2024/01/27 04:38:56;;;;;;;55.58;15.27;;;;;;;;;;4999918;28;20054;-77
2024/01/27 04:41:22;;;;;;;45.97;17.33;;;;;;;;;;4984463;28;20544;-75
2024/01/27 04:43:48;;;;;;;46.53;16.27;;;;;;;;;;4987770;28;20455;-75
2024/01/27 04:46:14;;;;;;;56.15;17.63;;;;;;;;;;4988093;28;20109;-76
2024/01/27 04:48:41;;;;;;;55.92;19.08;;;;;;;;;;4983311;28;20491;-76
2024/01/27 04:51:07;;;;;;;47.63;18.45;;;;;;;;;;5010473;28;20033;-76
2024/01/27 04:53:33;;;;;;;46.00;17.30;;;;;;;;;;5011530;28;20030;-76
2024/01/27 04:55:59;;;;;;;55.42;16.88;;;;;;;;;;4983715;28;20090;-75
2024/01/27 04:58:25;;;;;;;51.80;18.60;;;;;;;;;;5005844;28;20119;-76
2024/01/27 05:00:51;;;;;;;55.47;17.95;;;;;;;;;;4984552;28;20037;-75
2024/01/27 05:03:18;;;;;;;53.20;17.48;;;;;;;;;;4984485;28;20026;-75
2024/01/27 05:05:44;;;;;;;54.17;18.83;;;;;;;;;;4988499;28;20037;-76
2024/01/27 05:08:10;;;;;;;44.63;18.65;;;;;;;;;;4981613;28;20080;-76
2024/01/27 05:10:36;;;;;;;44.42;17.85;;;;;;;;;;4987520;28;20109;-76
2024/01/27 05:13:03;;;;;;;54.58;18.75;;;;;;;;;;4982118;28;20079;-75
2024/01/27 05:15:29;;;;;;;55.53;19.15;;;;;;;;;;5008051;28;20030;-76
2024/01/27 05:17:55;;;;;;;55.33;17.83;;;;;;;;;;4978210;28;20103;-76
2024/01/27 05:20:21;;;;;;;44.20;18.25;;;;;;;;;;4978480;28;20064;-75
2024/01/27 05:22:47;;;;;;;46.17;19.85;;;;;;;;;;4987521;28;20034;-75
2024/01/27 05:25:14;;;;;;;55.50;19.02;;;;;;;;;;5014860;28;20038;-75
2024/01/27 05:27:41;;;;;;;39.10;18.77;;;;;;;;;;4990952;28;20026;-75
2024/01/27 05:30:07;;;;;;;42.08;18.33;;;;;;;;;;5013853;28;20514;-75
2024/01/27 05:32:33;;;;;;;45.78;19.00;;;;;;;;;;4987694;28;20035;-74
2024/01/27 05:35:00;;;;;;;45.80;18.55;;;;;;;;;;4990446;28;20069;-76
2024/01/27 05:37:26;;;;;;;49.03;20.88;;;;;;;;;;4986509;28;20030;-77
2024/01/27 05:39:52;;;;;;;52.67;20.10;;;;;;;;;;5012414;28;20030;-76
2024/01/27 05:42:18;;;;;;;53.30;20.85;;;;;;;;;;4993840;28;20108;-76
2024/01/27 05:44:45;;;;;;;61.17;20.73;;;;;;;;;;5016326;28;20042;-75
2024/01/27 05:47:11;;;;;;;53.88;20.48;;;;;;;;;;5015942;28;20089;-76
2024/01/27 05:49:37;;;;;;;58.97;22.42;;;;;;;;;;4992278;28;20121;-76
2024/01/27 05:52:04;;;;;;;47.05;20.73;;;;;;;;;;4992472;28;20053;-76
2024/01/27 05:54:31;;;;;;;52.58;21.88;;;;;;;;;;4987389;28;20042;-76
2024/01/27 05:56:57;;;;;;;60.90;22.45;;;;;;;;;;4994985;28;20031;-77
2024/01/27 05:59:24;;;;;;;58.38;22.10;;;;;;;;;;4989656;28;20039;-75
2024/01/27 06:01:50;;;;;;;54.60;22.17;;;;;;;;;;5016300;28;20034;-77
2024/01/27 06:04:16;;;;;;;51.08;22.58;;;;;;;;;;4994165;28;20507;-76
2024/01/27 06:06:42;;;;;;;56.47;23.25;;;;;;;;;;5016011;28;20042;-76
2024/01/27 06:09:10;;;;;;;47.03;20.60;;;;;;;;;;4994008;28;20464;-77
2024/01/27 06:11:37;;;;;;;57.47;23.85;;;;;;;;;;4992025;28;20118;-75
2024/01/27 06:14:04;;;;;;;54.60;23.73;;;;;;;;;;4993369;28;20030;-77
2024/01/27 06:16:30;;;;;;;59.88;23.92;;;;;;;;;;4988813;28;20052;-75
2024/01/27 06:18:57;;;;;;;61.95;23.98;;;;;;;;;;4990141;28;20034;-77
2024/01/27 06:21:26;;;;;;;52.55;24.27;;;;;;;;;;4990607;28;20140;-75
2024/01/27 06:23:52;;;;;;;54.15;24.42;;;;;;;;;;4987594;28;20044;-75
2024/01/27 06:26:18;;;;;;;55.85;25.08;;;;;;;;;;4993867;28;20077;-75
2024/01/27 06:28:45;;;;;;;52.17;24.33;;;;;;;;;;4991523;28;20027;-76
2024/01/27 06:31:11;;;;;;;67.07;25.90;;;;;;;;;;5009720;28;20022;-76
2024/01/27 06:33:37;;;;;;;56.30;27.60;;;;;;;;;;5019081;28;20030;-76
2024/01/27 06:36:04;;;;;;;64.22;27.92;;;;;;;;;;5015900;28;20051;-77
2024/01/27 06:38:31;;;;;;;48.13;24.70;;;;;;;;;;5018573;28;20042;-77
2024/01/27 06:40:57;;;;;;;59.85;26.55;;;;;;;;;;4990306;28;20046;-77
2024/01/27 06:43:23;;;;;;;46.83;26.02;;;;;;;;;;4986963;28;20125;-76
2024/01/27 06:45:50;;;;;;;62.00;26.48;;;;;;;;;;4988505;28;20113;-78
2024/01/27 06:48:16;;;;;;;57.10;26.15;;;;;;;;;;4971968;28;20057;-77
2024/01/27 06:50:42;;;;;;;74.97;27.40;;;;;;;;;;4988676;28;20056;-77
2024/01/27 06:53:10;;;;;;;50.22;26.63;;;;;;;;;;4984858;28;20161;-77
2024/01/27 06:55:36;;;;;;;63.15;26.55;;;;;;;;;;4987599;28;20069;-77
2024/01/27 06:58:02;;;;;;;49.55;26.20;;;;;;;;;;4986495;28;20511;-76
2024/01/27 07:00:28;;;;;;;46.33;25.45;;;;;;;;;;4993687;28;20061;-76
2024/01/27 07:02:55;;;;;;;63.92;28.02;;;;;;;;;;5010008;28;20023;-78
2024/01/27 07:05:22;;;;;;;61.88;26.92;;;;;;;;;;5010031;28;20405;-78
2024/01/27 07:07:48;;;;;;;56.22;26.05;;;;;;;;;;4987220;28;20039;-76
2024/01/27 07:10:14;;;;;;;54.42;27.08;;;;;;;;;;4984818;28;20077;-77
2024/01/27 07:12:41;;;;;;;57.42;26.85;;;;;;;;;;4988147;28;20035;-76
2024/01/27 07:15:07;;;;;;;58.63;28.42;;;;;;;;;;4983971;28;20037;-76
2024/01/27 07:17:33;;;;;;;56.42;28.02;;;;;;;;;;4982850;28;20042;-76
2024/01/27 07:19:59;;;;;;;59.80;28.52;;;;;;;;;;4984532;28;20046;-75
2024/01/27 07:22:25;;;;;;;53.97;27.10;;;;;;;;;;4981733;28;20046;-75
2024/01/27 07:24:52;;;;;;;50.22;26.92;;;;;;;;;;4986461;28;20038;-76
2024/01/27 07:27:18;;;;;;;55.60;27.67;;;;;;;;;;4985567;28;20150;-75
2024/01/27 07:29:44;;;;;;;57.83;27.88;;;;;;;;;;4980620;28;20046;-75
2024/01/27 07:32:13;;;;;;;65.13;28.48;;;;;;;;;;4983935;28;20082;-75
2024/01/27 07:34:43;;;;;;;75.78;29.38;;;;;;;;;;4983760;28;20046;-76
2024/01/27 07:37:09;;;;;;;67.75;29.77;;;;;;;;;;4987603;28;20037;-76
2024/01/27 07:39:36;;;;;;;63.80;30.60;;;;;;;;;;4975254;28;20101;-75
2024/01/27 07:42:02;;;;;;;60.25;30.17;;;;;;;;;;4978232;28;20053;-76
2024/01/27 07:44:29;;;;;;;58.42;28.35;;;;;;;;;;5001233;28;20027;-75
2024/01/27 07:46:56;;;;;;;55.75;28.08;;;;;;;;;;4967843;28;20262;-76
2024/01/27 07:49:24;;;;;;;64.32;29.90;;;;;;;;;;4980127;28;20110;-75
2024/01/27 07:51:50;;;;;;;55.22;28.55;;;;;;;;;;4976445;28;20149;-76
2024/01/27 07:54:17;;;;;;;68.78;30.17;;;;;;;;;;5004060;28;20097;-76
2024/01/27 07:56:43;;;;;;;56.63;29.10;;;;;;;;;;4981368;28;20407;-75
2024/01/27 07:59:13;;;;;;;53.92;30.13;;;;;;;;;;4981939;28;20547;-76
2024/01/27 08:01:40;;;;;;;60.78;30.23;;;;;;;;;;4994235;28;20512;-76
2024/01/27 08:04:06;;;;;;;73.15;30.38;;;;;;;;;;4977728;28;20033;-75
2024/01/27 08:06:33;;;;;;;54.97;27.80;;;;;;;;;;4976828;28;20045;-76
2024/01/27 08:09:00;;;;;;;67.20;30.02;;;;;;;;;;4982072;28;20026;-75
2024/01/27 08:11:26;;;;;;;58.83;29.27;;;;;;;;;;4979345;28;20054;-75
2024/01/27 08:13:54;;;;;;;60.10;27.02;;;;;;;;;;4973720;28;20031;-76
2024/01/27 08:16:21;;;;;;;61.83;29.90;;;;;;;;;;4977586;28;20053;-75
2024/01/27 08:18:48;;;;;;;53.47;27.73;;;;;;;;;;5013111;28;20042;-75
2024/01/27 08:21:14;;;;;;;56.10;26.83;;;;;;;;;;4982503;28;20053;-75
2024/01/27 08:23:40;;;;;;;53.95;25.67;;;;;;;;;;4982973;28;20083;-75
2024/01/27 08:26:06;;;;;;;53.80;23.50;;;;;;;;;;5019875;28;20049;-76
2024/01/27 08:28:32;;;;;;;45.85;22.52;;;;;;;;;;4981149;28;20073;-77
2024/01/27 08:30:59;;;;;;;40.17;21.50;;;;;;;;;;4986714;28;20042;-75
2024/01/27 08:33:25;;;;;;;44.00;20.52;;;;;;;;;;4979931;28;20049;-76
2024/01/27 08:35:52;;;;;;;44.97;21.25;;;;;;;;;;4982305;28;20089;-75
2024/01/27 08:38:18;;;;;;;40.97;19.85;;;;;;;;;;4973875;28;20152;-74
2024/01/27 08:40:44;;;;;;;47.97;20.45;;;;;;;;;;4969103;28;20043;-76
2024/01/27 08:43:11;;;;;;;40.78;20.13;;;;;;;;;;4975540;28;20226;-76
2024/01/27 08:45:40;;;;;;;46.22;21.27;;;;;;;;;;4969335;28;20043;-76
2024/01/27 08:48:07;;;;;;;51.00;18.83;;;;;;;;;;4977262;28;20033;-76
2024/01/27 08:50:39;;;;;;;51.38;19.52;;;;;;;;;;4981887;28;20048;-76
2024/01/27 08:53:05;;;;;;;52.58;19.42;;;;;;;;;;4987702;28;20467;-75
2024/01/27 08:55:32;;;;;;;38.85;19.65;;;;;;;;;;4985066;28;20030;-76
2024/01/27 08:57:58;;;;;;;45.67;20.23;;;;;;;;;;5017985;28;20050;-76
2024/01/27 09:00:24;;;;;;;45.63;19.55;;;;;;;;;;4987741;28;20049;-77
2024/01/27 09:02:51;;;;;;;36.33;18.50;;;;;;;;;;4978359;28;20381;-75
2024/01/27 09:05:17;;;;;;;36.33;17.80;;;;;;;;;;4968798;28;20034;-77
2024/01/27 09:07:43;;;;;;;42.20;17.77;;;;;;;;;;4982535;28;20034;-76
2024/01/27 09:10:12;;;;;;;39.58;19.92;;;;;;;;;;4989965;28;20053;-75
2024/01/27 09:12:39;;;;;;;39.85;16.45;;;;;;;;;;4976112;28;20125;-76
2024/01/27 09:15:07;;;;;;;38.65;16.55;;;;;;;;;;4991447;28;20134;-75
2024/01/27 09:17:34;;;;;;;40.20;17.42;;;;;;;;;;5020987;28;20042;-76
2024/01/27 09:20:00;;;;;;;38.03;16.10;;;;;;;;;;4991305;28;20027;-76
2024/01/27 09:22:26;;;;;;;41.17;15.82;;;;;;;;;;5020684;28;20046;-75
2024/01/27 09:24:53;;;;;;;40.75;17.60;;;;;;;;;;5015624;28;20042;-76
2024/01/27 09:27:19;;;;;;;39.05;16.45;;;;;;;;;;4970355;28;20035;-76
2024/01/27 09:29:45;;;;;;;39.55;15.30;;;;;;;;;;4970548;28;20130;-76
2024/01/27 09:32:11;;;;;;;36.03;16.88;;;;;;;;;;4971478;28;20035;-76
2024/01/27 09:34:39;;;;;;;40.13;15.63;;;;;;;;;;5001849;28;20039;-76
2024/01/27 09:37:06;;;;;;;41.63;15.50;;;;;;;;;;4969629;28;20042;-76
2024/01/27 09:39:33;;;;;;;39.05;15.18;;;;;;;;;;4970998;28;20019;-76
2024/01/27 09:42:04;;;;;;;38.03;16.05;;;;;;;;;;4971736;28;20464;-76
2024/01/27 09:44:30;;;;;;;44.15;15.68;;;;;;;;;;4971703;28;20555;-76
2024/01/27 09:46:57;;;;;;;43.47;15.95;;;;;;;;;;5020254;28;20076;-76
2024/01/27 09:49:23;;;;;;;43.58;15.38;;;;;;;;;;5020726;28;20057;-76
2024/01/27 09:51:49;;;;;;;34.30;15.02;;;;;;;;;;4989793;28;20045;-77
2024/01/27 09:54:16;;;;;;;31.70;15.75;;;;;;;;;;4988786;28;20106;-76
2024/01/27 09:56:43;;;;;;;42.58;15.82;;;;;;;;;;4969382;28;20053;-75
2024/01/27 09:59:10;;;;;;;32.17;15.27;;;;;;;;;;4970984;28;20089;-76
2024/01/27 10:01:36;;;;;;;38.13;15.68;;;;;;;;;;4970189;28;20035;-76
2024/01/27 10:04:03;;;;;;;37.00;15.13;;;;;;;;;;5002014;28;20042;-77
2024/01/27 10:06:29;;;;;;;41.85;14.95;;;;;;;;;;4970287;28;20058;-76
2024/01/27 10:08:56;;;;;;;31.48;14.50;;;;;;;;;;5001283;28;20050;-75
2024/01/27 10:11:22;;;;;;;33.08;14.95;;;;;;;;;;4972220;28;20492;-76
2024/01/27 10:13:56;;;;;;;39.97;15.15;;;;;;;;;;4974353;28;20042;-75
2024/01/27 10:16:22;;;;;;;39.05;17.23;;;;;;;;;;4990236;28;20046;-76
2024/01/27 10:18:48;;;;;;;34.08;15.27;;;;;;;;;;4992576;28;20040;-76
2024/01/27 10:21:15;;;;;;;34.45;14.98;;;;;;;;;;4992110;28;20077;-77
2024/01/27 10:23:41;;;;;;;36.25;15.35;;;;;;;;;;5007687;28;20130;-77
2024/01/27 10:26:11;;;;;;;32.47;13.18;;;;;;;;;;4994655;28;20037;-76
2024/01/27 10:28:37;;;;;;;29.58;14.48;;;;;;;;;;5004455;28;20054;-76
2024/01/27 10:31:14;;;;;;;36.67;14.10;;;;;;;;;;4971888;28;20046;-76
2024/01/27 10:33:40;;;;;;;33.80;15.13;;;;;;;;;;4972071;28;20034;-76
2024/01/27 10:36:07;;;;;;;36.42;14.68;;;;;;;;;;4972761;28;20097;-75
2024/01/27 10:38:37;;;;;;;30.25;14.25;;;;;;;;;;4988819;28;20026;-76
2024/01/27 10:41:05;;;;;;;34.17;15.85;;;;;;;;;;4982154;28;20290;-76
2024/01/27 10:43:32;;;;;;;33.78;13.75;;;;;;;;;;4979990;28;20400;-76
2024/01/27 10:45:59;;;;;;;41.53;14.50;;;;;;;;;;4991920;28;20030;-77
2024/01/27 10:48:26;;;;;;;46.08;15.07;;;;;;;;;;4992466;28;20019;-76
2024/01/27 10:50:56;;;;;;;34.00;15.05;;;;;;;;;;4991321;28;20026;-76
2024/01/27 10:53:24;;;;;;;38.45;13.68;;;;;;;;;;4992036;28;20104;-75
2024/01/27 10:55:54;;;;;;;37.03;14.00;;;;;;;;;;4986500;28;20030;-76
2024/01/27 10:58:21;;;;;;;37.13;14.77;;;;;;;;;;4974028;28;21629;-75
2024/01/27 11:00:49;;;;;;;34.22;13.73;;;;;;;;;;5014976;28;20054;-76
2024/01/27 11:03:15;;;;;;;43.58;14.98;;;;;;;;;;4988493;28;20114;-74
2024/01/27 11:05:42;;;;;;;38.10;14.88;;;;;;;;;;4989717;28;20034;-76
2024/01/27 11:08:09;;;;;;;38.92;15.00;;;;;;;;;;4979915;28;20130;-76
2024/01/27 11:10:37;;;;;;;41.67;14.02;;;;;;;;;;4978851;28;20400;-76
2024/01/27 11:13:04;;;;;;;32.60;12.52;;;;;;;;;;4982533;28;20065;-78
2024/01/27 11:15:32;;;;;;;37.63;15.07;;;;;;;;;;4983066;28;20097;-77
2024/01/27 11:18:03;;;;;;;35.28;13.02;;;;;;;;;;4972183;28;20046;-76
2024/01/27 11:20:32;;;;;;;32.38;11.90;;;;;;;;;;4972862;28;20105;-78
2024/01/27 11:23:08;;;;;;;34.45;12.35;;;;;;;;;;4981476;28;20030;-77
2024/01/27 11:25:35;;;;;;;41.10;12.98;;;;;;;;;;5018646;28;20097;-77
2024/01/27 11:28:12;;;;;;;34.45;11.70;;;;;;;;;;4997245;28;20031;-78
2024/01/27 11:30:39;;;;;;;32.22;12.93;;;;;;;;;;4974133;28;20039;-76
2024/01/27 11:33:06;;;;;;;39.60;11.68;;;;;;;;;;5012110;28;20089;-77
2024/01/27 11:35:33;;;;;;;29.05;11.32;;;;;;;;;;4998369;28;20050;-78
2024/01/27 11:37:59;;;;;;;38.75;10.75;;;;;;;;;;5013281;28;20038;-76
2024/01/27 11:40:26;;;;;;;31.65;10.73;;;;;;;;;;4977173;28;20035;-76
2024/01/27 11:42:58;;;;;;;42.67;12.05;;;;;;;;;;4973615;28;20081;-75
2024/01/27 11:45:25;;;;;;;30.52;10.90;;;;;;;;;;5014875;28;20113;-76
2024/01/27 11:47:51;;;;;;;26.83;9.20;;;;;;;;;;4994456;28;20089;-76
2024/01/27 11:50:18;;;;;;;28.88;8.82;;;;;;;;;;4989754;28;20035;-76
2024/01/27 11:52:44;;;;;;;35.00;9.00;;;;;;;;;;4982487;28;20105;-77
2024/01/27 11:55:10;;;;;;;30.55;8.82;;;;;;;;;;4986804;28;20032;-75
2024/01/27 11:57:37;;;;;;;27.63;8.50;;;;;;;;;;4996660;28;20042;-75
2024/01/27 12:00:03;;;;;;;32.95;9.40;;;;;;;;;;4987963;28;20043;-76
2024/01/27 12:02:32;;;;;;;31.98;9.70;;;;;;;;;;4976196;28;20038;-75
2024/01/27 12:04:59;;;;;;;25.08;8.15;;;;;;;;;;5002477;28;20088;-77
2024/01/27 12:07:26;;;;;;;27.45;7.93;;;;;;;;;;4985524;28;20097;-76
2024/01/27 12:09:54;;;;;;;32.95;9.27;;;;;;;;;;4985609;28;20035;-78
2024/01/27 12:12:20;;;;;;;29.40;8.90;;;;;;;;;;4983245;28;20081;-75
2024/01/27 12:14:50;;;;;;;27.90;8.65;;;;;;;;;;4975591;28;20468;-74
2024/01/27 12:17:16;;;;;;;33.63;7.43;;;;;;;;;;4975891;28;20130;-77
2024/01/27 12:19:49;;;;;;;22.00;6.80;;;;;;;;;;4979211;28;20046;-75
2024/01/27 12:22:26;;;;;;;29.80;7.38;;;;;;;;;;4980916;28;20247;-76
2024/01/27 12:24:52;;;;;;;24.40;7.47;;;;;;;;;;4974779;28;20105;-76
2024/01/27 12:27:19;;;;;;;23.73;8.05;;;;;;;;;;4972990;28;20110;-76
2024/01/27 12:29:52;;;;;;;21.70;5.75;;;;;;;;;;4981839;28;20022;-76
2024/01/27 12:32:18;;;;;;;25.70;5.80;;;;;;;;;;4982565;28;20085;-77
2024/01/27 12:34:49;;;;;;;22.35;5.88;;;;;;;;;;5006795;28;20050;-78
2024/01/27 12:37:15;;;;;;;;;;;;;;;;;;4989470;28;20077;-77
2024/01/27 12:39:45;;;;;;;18.08;5.22;;;;;;;;;;4975829;28;19943;-76
2024/01/27 12:42:14;;;;;;;20.25;6.10;;;;;;;;;;4980346;28;20026;-76
2024/01/27 12:44:40;;;;;;;30.05;7.63;;;;;;;;;;4988019;28;20030;-76
2024/01/27 12:47:06;;;;;;;29.73;6.97;;;;;;;;;;5016947;28;20029;-76
2024/01/27 12:49:32;;;;;;;26.60;6.15;;;;;;;;;;5010792;28;20057;-77
2024/01/27 12:51:59;;;;;;;16.10;5.25;;;;;;;;;;5015359;28;20158;-76
2024/01/27 12:54:25;;;;;;;21.08;6.18;;;;;;;;;;4988660;28;20045;-77
2024/01/27 12:56:51;;;;;;;21.08;6.25;;;;;;;;;;4987577;28;20045;-76
2024/01/27 12:59:17;;;;;;;23.90;6.22;;;;;;;;;;4969779;28;20137;-77
2024/01/27 13:01:43;;;;;;;22.35;6.30;;;;;;;;;;4970563;28;20055;-77
2024/01/27 13:04:11;;;;;;;25.15;6.43;;;;;;;;;;4969911;28;20039;-76
2024/01/27 13:06:37;;;;;;;19.15;5.65;;;;;;;;;;4969694;28;20145;-76
2024/01/27 13:09:04;;;;;;;22.02;5.97;;;;;;;;;;5001513;28;20034;-76
2024/01/27 13:11:30;;;;;;;22.52;5.78;;;;;;;;;;4988658;28;20117;-76
2024/01/27 13:13:56;;;;;;;24.08;5.47;;;;;;;;;;4988786;28;20052;-76
2024/01/27 13:16:23;;;;;;;34.13;6.75;;;;;;;;;;4990227;28;20030;-76
2024/01/27 13:18:49;;;;;;;23.85;6.50;;;;;;;;;;5021186;28;20468;-75
2024/01/27 13:21:15;;;;;;;21.13;5.93;;;;;;;;;;4989602;28;20109;-76
2024/01/27 13:23:41;;;;;;;28.77;7.65;;;;;;;;;;5020767;28;20027;-75
2024/01/27 13:26:07;;;;;;;33.28;7.43;;;;;;;;;;4976668;28;20027;-76
2024/01/27 13:28:33;;;;;;;27.48;7.97;;;;;;;;;;4989045;28;20092;-76
2024/01/27 13:31:00;;;;;;;31.45;7.25;;;;;;;;;;4989567;28;20085;-75
2024/01/27 13:33:28;;;;;;;27.45;7.70;;;;;;;;;;4988303;28;20034;-76
2024/01/27 13:35:54;;;;;;;26.90;8.23;;;;;;;;;;4989787;28;20101;-77
2024/01/27 13:38:23;;;;;;;29.40;7.53;;;;;;;;;;5010732;28;20035;-76
2024/01/27 13:40:52;;;;;;;26.23;7.15;;;;;;;;;;4969798;28;20030;-75
2024/01/27 13:43:18;;;;;;;22.20;7.35;;;;;;;;;;4974234;28;20121;-76
2024/01/27 13:45:46;;;;;;;20.33;6.80;;;;;;;;;;4973456;28;20030;-75
2024/01/27 13:48:13;;;;;;;21.75;7.22;;;;;;;;;;5004981;28;20293;-76
2024/01/27 13:50:39;;;;;;;29.42;6.60;;;;;;;;;;4989728;28;20062;-76
2024/01/27 13:53:06;;;;;;;31.80;8.30;;;;;;;;;;4977304;28;20133;-76
2024/01/27 13:55:32;;;;;;;23.38;7.43;;;;;;;;;;4984838;28;20208;-74
2024/01/27 13:57:58;;;;;;;35.83;7.65;;;;;;;;;;4986227;28;20081;-76
2024/01/27 14:00:24;;;;;;;27.33;7.40;;;;;;;;;;4979234;28;20034;-77
2024/01/27 14:02:50;;;;;;;26.33;7.90;;;;;;;;;;4992693;28;20133;-76
2024/01/27 14:05:17;;;;;;;25.52;7.55;;;;;;;;;;4978215;28;20027;-76
2024/01/27 14:07:44;;;;;;;25.85;7.80;;;;;;;;;;5000916;28;20381;-77
2024/01/27 14:10:10;;;;;;;26.20;7.75;;;;;;;;;;5023649;28;20031;-77
2024/01/27 14:12:37;;;;;;;28.75;7.45;;;;;;;;;;4975927;28;20029;-77
2024/01/27 14:15:07;;;;;;;25.77;6.88;;;;;;;;;;5018339;28;20401;-77
2024/01/27 14:17:35;;;;;;;32.58;7.13;;;;;;;;;;4976258;28;20070;-76
2024/01/27 14:20:01;;;;;;;29.10;8.20;;;;;;;;;;4994188;28;20113;-75